Time;durP1;ratioP1;P1;durP2;ratioP2;P2;SDS_P1;SDS_P2;PMS_P1;PMS_P2;Temp;Humidity;BMP_temperature;BMP_pressure;BME280_temperature;BME280_humidity;BME280_pressure;Samples;Min_cycle;Max_cycle;Signal;HPM_P1;HPM_P2
2021/09/08 00:01:20;;;;;;;15.38;7.60;;;;;;;;;;5100915;28;20044;-80
2021/09/08 00:03:47;;;;;;;12.32;8.38;;;;;;;;;;5100947;28;20040;-81
2021/09/08 00:06:14;;;;;;;13.85;7.68;;;;;;;;;;5100834;28;20044;-81
2021/09/08 00:08:41;;;;;;;14.10;7.70;;;;;;;;;;5100722;28;20051;-81
2021/09/08 00:11:07;;;;;;;10.05;7.18;;;;;;;;;;5101420;28;20358;-81
2021/09/08 00:13:35;;;;;;;11.88;7.20;;;;;;;;;;5100148;28;20052;-80
2021/09/08 00:16:01;;;;;;;13.77;7.05;;;;;;;;;;5099645;28;20388;-82
2021/09/08 00:18:28;;;;;;;13.20;7.72;;;;;;;;;;5100387;28;20431;-81
2021/09/08 00:20:54;;;;;;;10.55;7.57;;;;;;;;;;5100881;28;20048;-81
2021/09/08 00:23:22;;;;;;;13.38;7.70;;;;;;;;;;5100396;28;20044;-81
2021/09/08 00:25:49;;;;;;;12.93;7.70;;;;;;;;;;5100475;28;20043;-81
2021/09/08 00:28:15;;;;;;;14.18;6.88;;;;;;;;;;5100981;28;20048;-82
2021/09/08 00:30:41;;;;;;;10.57;6.22;;;;;;;;;;5100574;28;20480;-82
2021/09/08 00:33:08;;;;;;;11.32;7.85;;;;;;;;;;5101066;28;20392;-81
2021/09/08 00:35:34;;;;;;;11.50;7.25;;;;;;;;;;5101682;28;20040;-82
2021/09/08 00:38:01;;;;;;;14.27;7.72;;;;;;;;;;5101007;28;20052;-82
2021/09/08 00:40:29;;;;;;;11.82;7.20;;;;;;;;;;5100569;28;20040;-82
2021/09/08 00:42:55;;;;;;;11.32;7.55;;;;;;;;;;5099565;28;20488;-81
2021/09/08 00:45:21;;;;;;;14.73;7.97;;;;;;;;;;5100365;28;20044;-82
2021/09/08 00:47:48;;;;;;;13.77;7.45;;;;;;;;;;5100616;28;20063;-82
2021/09/08 00:50:15;;;;;;;13.13;7.72;;;;;;;;;;5100555;28;20068;-81
2021/09/08 00:52:42;;;;;;;11.05;7.13;;;;;;;;;;5099931;28;20043;-81
2021/09/08 00:55:09;;;;;;;13.50;7.57;;;;;;;;;;5081009;28;20083;-81
2021/09/08 00:57:37;;;;;;;11.80;7.55;;;;;;;;;;5099463;28;20040;-82
2021/09/08 01:00:04;;;;;;;13.57;7.20;;;;;;;;;;5099353;28;20047;-81
2021/09/08 01:02:30;;;;;;;14.57;8.23;;;;;;;;;;5099076;28;20376;-80
2021/09/08 01:04:57;;;;;;;11.77;7.43;;;;;;;;;;5099426;28;20047;-81
2021/09/08 01:07:23;;;;;;;11.43;7.47;;;;;;;;;;5099588;28;20050;-81
2021/09/08 01:09:51;;;;;;;11.85;7.03;;;;;;;;;;5100351;28;20044;-81
2021/09/08 01:12:17;;;;;;;14.07;7.82;;;;;;;;;;5100087;28;20052;-82
2021/09/08 01:14:45;;;;;;;11.77;7.68;;;;;;;;;;5099529;28;20071;-81
2021/09/08 01:17:11;;;;;;;11.15;7.45;;;;;;;;;;5099374;28;20043;-82
2021/09/08 01:19:38;;;;;;;11.18;7.50;;;;;;;;;;5100220;28;20040;-81
2021/09/08 01:22:04;;;;;;;11.90;7.38;;;;;;;;;;5081419;28;20064;-82
2021/09/08 01:24:32;;;;;;;11.13;7.07;;;;;;;;;;5099914;28;20040;-82
2021/09/08 01:26:59;;;;;;;12.70;7.40;;;;;;;;;;5099591;28;20055;-82
2021/09/08 01:29:26;;;;;;;12.40;7.28;;;;;;;;;;5100691;28;20131;-81
2021/09/08 01:31:54;;;;;;;9.80;6.80;;;;;;;;;;5082474;28;20476;-82
2021/09/08 01:34:21;;;;;;;12.70;8.35;;;;;;;;;;5100786;28;20407;-82
2021/09/08 01:36:47;;;;;;;12.82;7.57;;;;;;;;;;5100471;28;20124;-81
2021/09/08 01:39:18;;;;;;;11.52;7.18;;;;;;;;;;5083115;28;20051;-81
2021/09/08 01:41:46;;;;;;;12.63;7.20;;;;;;;;;;5100808;28;20404;-81
2021/09/08 01:44:17;;;;;;;12.38;7.80;;;;;;;;;;5100397;28;20067;-82
2021/09/08 01:46:44;;;;;;;12.85;7.07;;;;;;;;;;5100997;28;20044;-82
2021/09/08 01:49:10;;;;;;;15.52;7.97;;;;;;;;;;5100424;28;20137;-82
2021/09/08 01:51:36;;;;;;;10.52;7.05;;;;;;;;;;5100396;28;20036;-81
2021/09/08 01:54:03;;;;;;;12.05;7.50;;;;;;;;;;5102904;28;20051;-82
2021/09/08 01:56:29;;;;;;;12.15;7.03;;;;;;;;;;5103718;28;20051;-82
2021/09/08 01:58:57;;;;;;;10.82;7.25;;;;;;;;;;5104115;28;20044;-82
2021/09/08 02:01:25;;;;;;;12.82;8.10;;;;;;;;;;5102201;28;20051;-83
2021/09/08 02:03:52;;;;;;;12.50;7.85;;;;;;;;;;5103070;28;20044;-82
2021/09/08 02:06:20;;;;;;;11.38;7.78;;;;;;;;;;5102475;28;20040;-82
2021/09/08 02:08:46;;;;;;;13.63;8.38;;;;;;;;;;5099910;28;20040;-81
2021/09/08 02:11:13;;;;;;;13.60;8.90;;;;;;;;;;5099762;28;20044;-81
2021/09/08 02:13:39;;;;;;;14.88;7.80;;;;;;;;;;5081497;28;20047;-82
2021/09/08 02:16:07;;;;;;;12.40;6.75;;;;;;;;;;5100669;28;20044;-81
2021/09/08 02:18:34;;;;;;;14.27;7.50;;;;;;;;;;5100320;28;20047;-82
2021/09/08 02:21:00;;;;;;;13.50;7.60;;;;;;;;;;5100413;28;20044;-82
2021/09/08 02:23:26;;;;;;;13.35;8.00;;;;;;;;;;5101392;28;20044;-83
2021/09/08 02:25:53;;;;;;;13.57;7.47;;;;;;;;;;5099108;28;20480;-82
2021/09/08 02:28:20;;;;;;;11.85;7.63;;;;;;;;;;5099993;28;20044;-82
2021/09/08 02:30:47;;;;;;;14.23;8.10;;;;;;;;;;5099536;28;20122;-81
2021/09/08 02:33:15;;;;;;;10.82;7.80;;;;;;;;;;5082700;28;20436;-82
2021/09/08 02:35:42;;;;;;;11.90;7.25;;;;;;;;;;5101250;28;20044;-82
2021/09/08 02:38:08;;;;;;;12.10;7.07;;;;;;;;;;5102035;28;20053;-82
2021/09/08 02:40:34;;;;;;;11.73;7.47;;;;;;;;;;5104531;28;20044;-82
2021/09/08 02:43:01;;;;;;;11.05;7.93;;;;;;;;;;5103190;28;20051;-81
2021/09/08 02:45:27;;;;;;;11.07;7.57;;;;;;;;;;5103992;28;20043;-82
2021/09/08 02:47:54;;;;;;;14.32;8.02;;;;;;;;;;5104008;28;20036;-81
2021/09/08 02:50:21;;;;;;;16.08;7.75;;;;;;;;;;5104112;28;20042;-82
2021/09/08 02:52:48;;;;;;;13.07;7.80;;;;;;;;;;5102614;28;20048;-82
2021/09/08 02:55:14;;;;;;;10.38;7.38;;;;;;;;;;5102974;28;20040;-81
2021/09/08 02:57:41;;;;;;;15.40;8.15;;;;;;;;;;5085186;28;20078;-81
2021/09/08 03:00:08;;;;;;;12.35;7.30;;;;;;;;;;5104527;28;20048;-82
2021/09/08 03:02:35;;;;;;;11.77;7.22;;;;;;;;;;5103326;28;20043;-82
2021/09/08 03:05:02;;;;;;;10.43;6.55;;;;;;;;;;5103682;28;20463;-81
2021/09/08 03:07:30;;;;;;;14.38;8.05;;;;;;;;;;5104214;28;20051;-82
2021/09/08 03:09:56;;;;;;;13.77;8.65;;;;;;;;;;5104231;28;20043;-82
2021/09/08 03:12:22;;;;;;;11.63;7.35;;;;;;;;;;5104914;28;20048;-82
2021/09/08 03:14:49;;;;;;;11.52;7.28;;;;;;;;;;5104608;28;20047;-81
2021/09/08 03:17:15;;;;;;;11.90;7.03;;;;;;;;;;5104136;28;20042;-82
2021/09/08 03:19:42;;;;;;;13.98;7.05;;;;;;;;;;5102642;28;20370;-82
2021/09/08 03:22:08;;;;;;;12.55;7.45;;;;;;;;;;5103934;28;20044;-82
2021/09/08 03:24:36;;;;;;;14.18;8.43;;;;;;;;;;5104329;28;20040;-82
2021/09/08 03:27:03;;;;;;;11.65;7.10;;;;;;;;;;5103652;28;20043;-82
2021/09/08 03:29:29;;;;;;;10.70;7.22;;;;;;;;;;5103145;28;20040;-82
2021/09/08 03:31:56;;;;;;;9.88;6.78;;;;;;;;;;5103499;28;20040;-81
2021/09/08 03:34:22;;;;;;;12.60;7.57;;;;;;;;;;5103037;28;20048;-82
2021/09/08 03:36:48;;;;;;;15.90;8.65;;;;;;;;;;5102638;28;20376;-82
2021/09/08 03:39:15;;;;;;;12.38;7.28;;;;;;;;;;5103549;28;20040;-82
2021/09/08 03:41:42;;;;;;;9.13;6.78;;;;;;;;;;5103381;28;20055;-82
2021/09/08 03:44:09;;;;;;;11.00;7.22;;;;;;;;;;5102558;28;20044;-82
2021/09/08 03:46:35;;;;;;;10.73;6.68;;;;;;;;;;5104058;28;20040;-81
2021/09/08 03:49:02;;;;;;;11.82;7.30;;;;;;;;;;5101430;28;20047;-81
2021/09/08 03:51:28;;;;;;;12.32;7.85;;;;;;;;;;5102486;28;20036;-82
2021/09/08 03:53:58;;;;;;;12.20;7.13;;;;;;;;;;5102178;28;20051;-82
2021/09/08 03:56:24;;;;;;;12.15;7.07;;;;;;;;;;5102881;28;20078;-82
2021/09/08 03:58:52;;;;;;;13.00;7.25;;;;;;;;;;5102288;28;20073;-82
2021/09/08 04:01:19;;;;;;;12.55;6.80;;;;;;;;;;5103465;28;20036;-82
2021/09/08 04:03:47;;;;;;;14.63;8.13;;;;;;;;;;5106161;28;20047;-82
2021/09/08 04:06:13;;;;;;;20.33;7.90;;;;;;;;;;5107045;28;20090;-82
2021/09/08 04:08:40;;;;;;;11.93;7.95;;;;;;;;;;5101247;28;20036;-82
2021/09/08 04:11:06;;;;;;;12.82;7.75;;;;;;;;;;5100599;28;20089;-82
2021/09/08 04:13:33;;;;;;;11.90;6.72;;;;;;;;;;5100617;28;20040;-82
2021/09/08 04:16:00;;;;;;;13.95;8.75;;;;;;;;;;5100929;28;20036;-82
2021/09/08 04:18:27;;;;;;;14.68;7.78;;;;;;;;;;5101826;28;20040;-82
2021/09/08 04:20:53;;;;;;;15.77;8.00;;;;;;;;;;5101349;28;20043;-82
2021/09/08 04:23:20;;;;;;;10.57;6.43;;;;;;;;;;5084199;28;20081;-82
2021/09/08 04:25:47;;;;;;;12.43;7.53;;;;;;;;;;5101189;28;20048;-82
2021/09/08 04:28:13;;;;;;;13.18;8.15;;;;;;;;;;5100507;28;20496;-82
2021/09/08 04:30:40;;;;;;;13.57;7.72;;;;;;;;;;5101374;28;20078;-82
2021/09/08 04:33:08;;;;;;;12.50;7.90;;;;;;;;;;5101691;28;20199;-82
2021/09/08 04:35:34;;;;;;;14.45;8.15;;;;;;;;;;5102004;28;20044;-82
2021/09/08 04:38:01;;;;;;;11.73;7.47;;;;;;;;;;5101149;28;20047;-82
2021/09/08 04:40:27;;;;;;;15.40;7.55;;;;;;;;;;5102945;28;20052;-82
2021/09/08 04:42:54;;;;;;;14.15;7.57;;;;;;;;;;5102257;28;20040;-82
2021/09/08 04:45:20;;;;;;;13.27;7.80;;;;;;;;;;5102910;28;20040;-82
2021/09/08 04:47:47;;;;;;;20.05;10.27;;;;;;;;;;5103029;28;20048;-83
2021/09/08 04:50:15;;;;;;;11.82;7.88;;;;;;;;;;5102398;28;20122;-83
2021/09/08 04:52:41;;;;;;;14.35;7.80;;;;;;;;;;5100654;28;20048;-82
2021/09/08 04:55:08;;;;;;;14.00;7.88;;;;;;;;;;5101573;28;20036;-82
2021/09/08 04:57:35;;;;;;;13.68;7.65;;;;;;;;;;5103445;28;20048;-82
2021/09/08 05:00:01;;;;;;;15.88;7.88;;;;;;;;;;5100234;28;20040;-82
2021/09/08 05:02:28;;;;;;;13.50;8.88;;;;;;;;;;5099643;28;20460;-83
2021/09/08 05:04:54;;;;;;;14.88;8.02;;;;;;;;;;5099595;28;20036;-83
2021/09/08 05:07:22;;;;;;;13.82;8.63;;;;;;;;;;5100691;28;20388;-82
2021/09/08 05:09:48;;;;;;;11.95;7.22;;;;;;;;;;5099161;28;20047;-83
2021/09/08 05:12:15;;;;;;;12.88;7.43;;;;;;;;;;5099399;28;20043;-82
2021/09/08 05:14:42;;;;;;;13.10;8.40;;;;;;;;;;5100754;28;20047;-82
2021/09/08 05:17:08;;;;;;;12.00;7.57;;;;;;;;;;5100017;28;20040;-83
2021/09/08 05:19:35;;;;;;;14.70;9.10;;;;;;;;;;5099544;28;20040;-83
2021/09/08 05:22:01;;;;;;;11.45;7.57;;;;;;;;;;5099740;28;20047;-82
2021/09/08 05:24:29;;;;;;;16.08;9.77;;;;;;;;;;5099832;28;20036;-82
2021/09/08 05:26:59;;;;;;;15.35;8.52;;;;;;;;;;5099871;28;20036;-82
2021/09/08 05:29:26;;;;;;;13.13;7.72;;;;;;;;;;5098348;28;20074;-82
2021/09/08 05:31:52;;;;;;;15.27;8.38;;;;;;;;;;5098399;28;20557;-82
2021/09/08 05:34:19;;;;;;;13.40;7.90;;;;;;;;;;5099180;28;20495;-82
2021/09/08 05:36:46;;;;;;;15.45;9.25;;;;;;;;;;5098746;28;20066;-82
2021/09/08 05:39:13;;;;;;;12.43;7.30;;;;;;;;;;5100138;28;20173;-82
2021/09/08 05:41:41;;;;;;;14.95;8.05;;;;;;;;;;5098452;28;20040;-82
2021/09/08 05:44:07;;;;;;;11.43;7.57;;;;;;;;;;5097763;28;20051;-83
2021/09/08 05:46:36;;;;;;;20.95;10.07;;;;;;;;;;5099116;28;20044;-82
2021/09/08 05:49:02;;;;;;;17.95;10.93;;;;;;;;;;5098993;28;20040;-82
2021/09/08 05:51:29;;;;;;;22.38;11.40;;;;;;;;;;5098524;28;20040;-82
2021/09/08 05:53:55;;;;;;;17.98;10.18;;;;;;;;;;5080907;28;20036;-82
2021/09/08 05:56:22;;;;;;;17.45;10.15;;;;;;;;;;5099022;28;20044;-82
2021/09/08 05:58:50;;;;;;;21.48;12.85;;;;;;;;;;5099444;28;20044;-82
2021/09/08 06:01:16;;;;;;;17.40;11.10;;;;;;;;;;5099234;28;20040;-82
2021/09/08 06:03:42;;;;;;;18.38;10.40;;;;;;;;;;5100266;28;20044;-82
2021/09/08 06:06:09;;;;;;;18.40;10.82;;;;;;;;;;5102454;28;20047;-83
2021/09/08 06:08:35;;;;;;;20.33;11.10;;;;;;;;;;5098840;28;20050;-83
2021/09/08 06:11:02;;;;;;;17.80;11.15;;;;;;;;;;5098294;28;20036;-82
2021/09/08 06:13:28;;;;;;;18.45;10.55;;;;;;;;;;5102477;28;20055;-82
2021/09/08 06:15:56;;;;;;;19.50;12.13;;;;;;;;;;5102006;28;20357;-83
2021/09/08 06:18:22;;;;;;;22.90;13.35;;;;;;;;;;5102012;28;20063;-82
2021/09/08 06:20:49;;;;;;;26.00;16.48;;;;;;;;;;5083558;28;20150;-82
2021/09/08 06:23:16;;;;;;;28.85;16.00;;;;;;;;;;5102116;28;20044;-82
2021/09/08 06:25:42;;;;;;;26.58;15.95;;;;;;;;;;5101836;28;20484;-82
2021/09/08 06:28:09;;;;;;;24.10;15.38;;;;;;;;;;5101538;28;20036;-82
2021/09/08 06:30:35;;;;;;;25.55;13.75;;;;;;;;;;5101370;28;20040;-82
2021/09/08 06:33:03;;;;;;;19.63;13.15;;;;;;;;;;5101345;28;20476;-83
2021/09/08 06:35:29;;;;;;;21.45;13.23;;;;;;;;;;5101479;28;20357;-82
2021/09/08 06:37:56;;;;;;;22.27;14.38;;;;;;;;;;5100918;28;20040;-81
2021/09/08 06:40:22;;;;;;;20.98;13.57;;;;;;;;;;5101636;28;20040;-83
2021/09/08 06:42:49;;;;;;;22.98;14.20;;;;;;;;;;5100788;28;20040;-81
2021/09/08 06:45:17;;;;;;;19.02;12.75;;;;;;;;;;5100789;28;20044;-81
2021/09/08 06:47:43;;;;;;;19.98;13.27;;;;;;;;;;5100452;28;20541;-81
2021/09/08 06:50:11;;;;;;;20.65;13.50;;;;;;;;;;5101828;28;20044;-80
2021/09/08 06:52:38;;;;;;;21.52;13.32;;;;;;;;;;5100809;28;20040;-81
2021/09/08 06:55:05;;;;;;;20.83;14.32;;;;;;;;;;5101317;28;20055;-81
2021/09/08 06:57:33;;;;;;;21.65;13.50;;;;;;;;;;5083076;28;20495;-81
2021/09/08 06:59:59;;;;;;;24.63;13.88;;;;;;;;;;5100748;28;20048;-82
2021/09/08 07:02:25;;;;;;;20.33;13.13;;;;;;;;;;5100197;28;20040;-82
2021/09/08 07:04:52;;;;;;;21.23;13.95;;;;;;;;;;5082070;28;20048;-82
2021/09/08 07:07:20;;;;;;;20.75;13.80;;;;;;;;;;5048806;28;20086;-82
2021/09/08 07:09:47;;;;;;;22.90;13.55;;;;;;;;;;5100297;28;20071;-82
2021/09/08 07:12:13;;;;;;;21.95;14.23;;;;;;;;;;5099784;28;20043;-82
2021/09/08 07:14:40;;;;;;;22.98;14.07;;;;;;;;;;5100136;28;20093;-81
2021/09/08 07:17:06;;;;;;;20.02;13.18;;;;;;;;;;5100595;28;20035;-81
2021/09/08 07:19:33;;;;;;;19.35;12.63;;;;;;;;;;5100889;28;20036;-81
2021/09/08 07:22:00;;;;;;;19.33;13.10;;;;;;;;;;5100754;28;20042;-80
2021/09/08 07:24:28;;;;;;;21.35;13.60;;;;;;;;;;5100641;28;20036;-81
2021/09/08 07:26:56;;;;;;;17.58;13.10;;;;;;;;;;5100047;28;20051;-81
2021/09/08 07:29:23;;;;;;;19.33;13.48;;;;;;;;;;5100482;28;20036;-81
2021/09/08 07:31:50;;;;;;;18.80;13.00;;;;;;;;;;5100766;28;20456;-81
2021/09/08 07:34:16;;;;;;;18.50;13.07;;;;;;;;;;5100591;28;20067;-81
2021/09/08 07:36:43;;;;;;;23.27;13.50;;;;;;;;;;5100485;28;20040;-80
2021/09/08 07:39:09;;;;;;;19.95;12.80;;;;;;;;;;5102237;28;20044;-81
2021/09/08 07:41:37;;;;;;;19.98;13.50;;;;;;;;;;5100802;28;20361;-80
2021/09/08 07:44:04;;;;;;;18.52;13.50;;;;;;;;;;5100433;28;20040;-81
2021/09/08 07:46:30;;;;;;;17.70;12.10;;;;;;;;;;5081870;28;20423;-81
2021/09/08 07:48:57;;;;;;;18.35;12.23;;;;;;;;;;5100438;28;20036;-82
2021/09/08 07:51:23;;;;;;;16.13;11.35;;;;;;;;;;5082177;28;20048;-82
2021/09/08 07:53:50;;;;;;;19.55;12.75;;;;;;;;;;5099909;28;20044;-81
2021/09/08 07:56:16;;;;;;;16.92;12.68;;;;;;;;;;5064709;28;20076;-82
2021/09/08 07:58:44;;;;;;;18.50;12.57;;;;;;;;;;5100054;28;20047;-82
2021/09/08 08:01:11;;;;;;;20.42;12.77;;;;;;;;;;5100139;28;20040;-82
2021/09/08 08:03:38;;;;;;;15.88;11.90;;;;;;;;;;5100551;28;20362;-82
2021/09/08 08:06:04;;;;;;;14.77;10.70;;;;;;;;;;5081602;28;20072;-82
2021/09/08 08:08:31;;;;;;;16.13;10.63;;;;;;;;;;5100496;28;20047;-81
2021/09/08 08:10:57;;;;;;;15.60;11.57;;;;;;;;;;5082060;28;20040;-82
2021/09/08 08:13:24;;;;;;;15.30;11.05;;;;;;;;;;5101153;28;20040;-82
2021/09/08 08:15:52;;;;;;;16.70;11.93;;;;;;;;;;5081937;28;20424;-81
2021/09/08 08:18:18;;;;;;;17.52;12.48;;;;;;;;;;5099409;28;20051;-82
2021/09/08 08:20:45;;;;;;;17.25;11.60;;;;;;;;;;5081287;28;20040;-82
2021/09/08 08:23:12;;;;;;;18.55;12.60;;;;;;;;;;5099420;28;20040;-82
2021/09/08 08:25:38;;;;;;;16.10;10.32;;;;;;;;;;5098895;28;20051;-82
2021/09/08 08:28:05;;;;;;;14.23;10.43;;;;;;;;;;5099215;28;20036;-82
2021/09/08 08:30:32;;;;;;;15.48;10.40;;;;;;;;;;5098862;28;20048;-83
2021/09/08 08:33:01;;;;;;;14.60;10.70;;;;;;;;;;5100032;28;20044;-82
2021/09/08 08:35:28;;;;;;;14.50;10.90;;;;;;;;;;5098151;28;20044;-82
2021/09/08 08:37:54;;;;;;;17.65;11.75;;;;;;;;;;5081517;28;20495;-82
2021/09/08 08:40:22;;;;;;;12.75;9.70;;;;;;;;;;5082279;28;20039;-83
2021/09/08 08:42:49;;;;;;;13.95;10.50;;;;;;;;;;5099875;28;20069;-83
2021/09/08 08:45:16;;;;;;;13.70;10.43;;;;;;;;;;5099435;28;20044;-81
2021/09/08 08:47:43;;;;;;;11.95;9.52;;;;;;;;;;5099639;28;20040;-82
2021/09/08 08:50:13;;;;;;;12.38;9.25;;;;;;;;;;5099526;28;20052;-82
2021/09/08 08:52:40;;;;;;;11.70;8.90;;;;;;;;;;5100553;28;20056;-83
2021/09/08 08:55:07;;;;;;;11.88;9.32;;;;;;;;;;5100602;28;20043;-82
2021/09/08 08:57:34;;;;;;;14.70;10.30;;;;;;;;;;5101904;28;20054;-82
2021/09/08 09:00:00;;;;;;;11.65;8.93;;;;;;;;;;5100023;28;20040;-83
2021/09/08 09:02:28;;;;;;;10.50;8.82;;;;;;;;;;5098749;28;20040;-82
2021/09/08 09:04:57;;;;;;;14.57;9.68;;;;;;;;;;5099807;28;20040;-82
2021/09/08 09:07:27;;;;;;;12.30;9.25;;;;;;;;;;5099755;28;20040;-83
2021/09/08 09:09:55;;;;;;;12.98;9.18;;;;;;;;;;5098869;28;20077;-82
2021/09/08 09:12:25;;;;;;;10.00;7.90;;;;;;;;;;5099059;28;20036;-82
2021/09/08 09:14:55;;;;;;;11.35;8.32;;;;;;;;;;5099467;28;20040;-82
2021/09/08 09:17:21;;;;;;;11.32;8.52;;;;;;;;;;5098638;28;20548;-83
2021/09/08 09:19:48;;;;;;;11.88;7.97;;;;;;;;;;5099670;28;20044;-82
2021/09/08 09:22:17;;;;;;;12.27;8.38;;;;;;;;;;5099006;28;20067;-82
2021/09/08 09:24:46;;;;;;;10.70;8.10;;;;;;;;;;5100302;28;20055;-82
2021/09/08 09:27:13;;;;;;;12.63;7.47;;;;;;;;;;5098734;28;20046;-82
2021/09/08 09:29:43;;;;;;;10.63;7.85;;;;;;;;;;5098692;28;20047;-83
2021/09/08 09:32:11;;;;;;;10.48;8.00;;;;;;;;;;5097967;28;20075;-82
2021/09/08 09:34:39;;;;;;;9.70;7.72;;;;;;;;;;5099192;28;20044;-83
2021/09/08 09:37:06;;;;;;;10.82;7.65;;;;;;;;;;5099006;28;20074;-83
2021/09/08 09:39:34;;;;;;;10.02;7.15;;;;;;;;;;5081538;28;20047;-82
2021/09/08 09:42:04;;;;;;;12.30;8.20;;;;;;;;;;5099306;28;20384;-83
2021/09/08 09:44:31;;;;;;;10.43;7.68;;;;;;;;;;5098253;28;20055;-83
2021/09/08 09:46:57;;;;;;;9.00;7.40;;;;;;;;;;5099398;28;20036;-83
2021/09/08 09:49:25;;;;;;;10.27;8.77;;;;;;;;;;5103177;28;20043;-83
2021/09/08 09:51:55;;;;;;;11.60;8.77;;;;;;;;;;5102996;28;20079;-83
2021/09/08 09:54:22;;;;;;;12.70;9.48;;;;;;;;;;5104083;28;20067;-83
2021/09/08 09:56:49;;;;;;;12.88;10.20;;;;;;;;;;5104419;28;20043;-83
2021/09/08 09:59:17;;;;;;;11.48;9.07;;;;;;;;;;5103249;28;20036;-83
2021/09/08 10:01:44;;;;;;;12.10;8.38;;;;;;;;;;5103341;28;20044;-83
2021/09/08 10:04:10;;;;;;;13.52;8.82;;;;;;;;;;5102675;28;20054;-83
2021/09/08 10:06:38;;;;;;;12.90;9.40;;;;;;;;;;5103155;28;20044;-84
2021/09/08 10:09:06;;;;;;;9.95;8.30;;;;;;;;;;5103059;28;20109;-82
2021/09/08 10:11:36;;;;;;;9.65;7.72;;;;;;;;;;5102602;28;20040;-83
2021/09/08 10:14:05;;;;;;;13.63;10.15;;;;;;;;;;5103284;28;20048;-82
2021/09/08 10:16:34;;;;;;;11.50;8.80;;;;;;;;;;5103625;28;20044;-82
2021/09/08 10:19:03;;;;;;;14.07;8.93;;;;;;;;;;5103205;28;20074;-81
2021/09/08 10:21:30;;;;;;;12.65;9.82;;;;;;;;;;5103451;28;20460;-83
2021/09/08 10:23:58;;;;;;;12.13;9.85;;;;;;;;;;5085821;28;20051;-82
2021/09/08 10:26:29;;;;;;;11.20;8.77;;;;;;;;;;5102998;28;20078;-83
2021/09/08 10:28:57;;;;;;;14.15;11.52;;;;;;;;;;5103652;28;20036;-82
2021/09/08 10:31:24;;;;;;;13.18;10.02;;;;;;;;;;5083740;28;20048;-82
2021/09/08 10:33:56;;;;;;;14.90;10.27;;;;;;;;;;5119410;28;20051;-83
2021/09/08 10:36:22;;;;;;;11.73;9.77;;;;;;;;;;5104300;28;20039;-83
2021/09/08 10:39:04;;;;;;;12.90;9.18;;;;;;;;;;5102960;28;20047;-83
2021/09/08 10:41:37;;;;;;;14.57;10.38;;;;;;;;;;5103028;28;20044;-84
2021/09/08 10:44:04;;;;;;;17.25;10.80;;;;;;;;;;5103145;28;20040;-84
2021/09/08 10:46:48;;;;;;;14.60;10.27;;;;;;;;;;5102169;28;20480;-84
2021/09/08 10:49:49;;;;;;;14.10;9.57;;;;;;;;;;5102462;28;20047;-84
2021/09/08 10:52:44;;;;;;;13.52;9.57;;;;;;;;;;5102231;28;20127;-84
2021/09/08 10:55:24;;;;;;;12.20;8.90;;;;;;;;;;5102781;28;20048;-83
2021/09/08 10:58:01;;;;;;;11.50;8.80;;;;;;;;;;5102273;28;20114;-84
2021/09/08 11:00:30;;;;;;;12.20;8.85;;;;;;;;;;5101561;28;20556;-83
2021/09/08 11:02:57;;;;;;;10.23;8.40;;;;;;;;;;5102388;28;20044;-83
2021/09/08 11:05:24;;;;;;;10.80;9.25;;;;;;;;;;5101983;28;20055;-83
2021/09/08 11:07:52;;;;;;;12.30;9.75;;;;;;;;;;5101974;28;20051;-82
2021/09/08 11:10:26;;;;;;;14.07;9.85;;;;;;;;;;5102006;28;20055;-83
2021/09/08 11:12:54;;;;;;;11.70;10.00;;;;;;;;;;5102237;28;20040;-82
2021/09/08 11:15:31;;;;;;;11.35;8.57;;;;;;;;;;5101575;28;20075;-84
2021/09/08 11:17:58;;;;;;;14.07;9.27;;;;;;;;;;5101827;28;20047;-83
2021/09/08 11:20:26;;;;;;;10.27;8.65;;;;;;;;;;5117947;28;20059;-83
2021/09/08 11:23:00;;;;;;;13.38;9.50;;;;;;;;;;5101410;28;20503;-82
2021/09/08 11:25:30;;;;;;;10.65;9.02;;;;;;;;;;5082734;28;20043;-82
2021/09/08 11:27:57;;;;;;;11.63;9.82;;;;;;;;;;5101025;28;20044;-83
2021/09/08 11:30:23;;;;;;;13.95;9.95;;;;;;;;;;5101906;28;20051;-82
2021/09/08 11:32:51;;;;;;;13.65;8.77;;;;;;;;;;5101333;28;20036;-82
2021/09/08 11:35:38;;;;;;;12.05;9.57;;;;;;;;;;5101108;28;20067;-82
2021/09/08 11:38:08;;;;;;;12.07;9.55;;;;;;;;;;5100373;28;20059;-82
2021/09/08 11:40:34;;;;;;;14.00;10.68;;;;;;;;;;5101012;28;20071;-84
2021/09/08 11:43:01;;;;;;;12.30;10.00;;;;;;;;;;5100435;28;20039;-83
2021/09/08 11:45:27;;;;;;;14.20;9.57;;;;;;;;;;5101020;28;20048;-83
2021/09/08 11:47:54;;;;;;;14.10;10.75;;;;;;;;;;5099356;28;20040;-82
2021/09/08 11:50:21;;;;;;;12.50;9.95;;;;;;;;;;5100216;28;20043;-83
2021/09/08 11:52:54;;;;;;;11.82;9.55;;;;;;;;;;5098696;28;20446;-83
2021/09/08 11:55:25;;;;;;;11.07;8.55;;;;;;;;;;5100248;28;20040;-84
2021/09/08 11:57:51;;;;;;;9.48;8.10;;;;;;;;;;5100634;28;20051;-83
2021/09/08 12:00:18;;;;;;;10.95;8.82;;;;;;;;;;5100552;28;20044;-83
2021/09/08 12:02:45;;;;;;;12.68;10.05;;;;;;;;;;5099527;28;20074;-83
2021/09/08 12:05:19;;;;;;;11.48;9.57;;;;;;;;;;5099471;28;20458;-83
2021/09/08 12:07:45;;;;;;;10.45;8.27;;;;;;;;;;5099209;28;20495;-83
2021/09/08 12:10:13;;;;;;;12.80;8.73;;;;;;;;;;5099311;28;20048;-83
2021/09/08 12:12:41;;;;;;;8.65;7.40;;;;;;;;;;5099340;28;20057;-83
2021/09/08 12:15:08;;;;;;;13.00;9.07;;;;;;;;;;5064188;28;20082;-82
2021/09/08 12:17:35;;;;;;;8.77;7.85;;;;;;;;;;5098872;28;20047;-82
2021/09/08 12:20:03;;;;;;;11.98;9.80;;;;;;;;;;5099599;28;20036;-82
2021/09/08 12:22:34;;;;;;;9.88;8.25;;;;;;;;;;5081309;28;20040;-82
2021/09/08 12:25:02;;;;;;;14.25;9.95;;;;;;;;;;5099446;28;20040;-82
2021/09/08 12:27:33;;;;;;;11.00;8.65;;;;;;;;;;5098942;28;20048;-83
2021/09/08 12:30:01;;;;;;;12.00;9.07;;;;;;;;;;5099839;28;20056;-82
2021/09/08 12:32:51;;;;;;;12.05;8.77;;;;;;;;;;5099500;28;20361;-83
2021/09/08 12:35:38;;;;;;;9.32;8.30;;;;;;;;;;5100884;28;20354;-83
2021/09/08 12:38:23;;;;;;;11.95;8.93;;;;;;;;;;5100687;28;20076;-83
2021/09/08 12:41:07;;;;;;;10.07;8.20;;;;;;;;;;5100121;28;20048;-82
2021/09/08 12:43:35;;;;;;;10.80;7.95;;;;;;;;;;5099619;28;20048;-82
2021/09/08 12:46:02;;;;;;;8.25;7.25;;;;;;;;;;5099985;28;20372;-83
2021/09/08 12:48:29;;;;;;;10.25;7.22;;;;;;;;;;5080940;28;20040;-82
2021/09/08 12:50:56;;;;;;;12.45;8.27;;;;;;;;;;5081234;28;20050;-82
2021/09/08 12:53:22;;;;;;;11.07;8.75;;;;;;;;;;5099026;28;20047;-82
2021/09/08 12:55:49;;;;;;;11.32;7.88;;;;;;;;;;5099270;28;20361;-80
2021/09/08 12:58:15;;;;;;;8.77;6.97;;;;;;;;;;5098941;28;20051;-80
2021/09/08 13:00:43;;;;;;;8.93;6.97;;;;;;;;;;5099094;28;20055;-81
2021/09/08 13:03:11;;;;;;;9.35;7.95;;;;;;;;;;5080796;28;20105;-81
2021/09/08 13:05:38;;;;;;;9.70;8.02;;;;;;;;;;5080975;28;20072;-82
2021/09/08 13:08:05;;;;;;;10.25;7.75;;;;;;;;;;5099582;28;20044;-83
2021/09/08 13:10:31;;;;;;;8.45;6.85;;;;;;;;;;5099813;28;20040;-83
2021/09/08 13:12:58;;;;;;;7.32;6.13;;;;;;;;;;5081092;28;20085;-83
2021/09/08 13:15:24;;;;;;;8.43;6.70;;;;;;;;;;5098408;28;20051;-83
2021/09/08 13:17:52;;;;;;;8.88;6.95;;;;;;;;;;5100147;28;20046;-82
2021/09/08 13:20:20;;;;;;;9.82;7.78;;;;;;;;;;5099135;28;20044;-81
2021/09/08 13:22:46;;;;;;;9.57;7.45;;;;;;;;;;5098361;28;20040;-80
2021/09/08 13:25:12;;;;;;;11.40;8.77;;;;;;;;;;5098026;28;20039;-81
2021/09/08 13:27:39;;;;;;;9.35;7.50;;;;;;;;;;5098841;28;20082;-81
2021/09/08 13:30:06;;;;;;;7.55;6.07;;;;;;;;;;5080673;28;20468;-82
2021/09/08 13:32:33;;;;;;;8.90;5.65;;;;;;;;;;5099388;28;20047;-82
2021/09/08 13:35:00;;;;;;;9.63;6.28;;;;;;;;;;5098655;28;20439;-83
2021/09/08 13:37:27;;;;;;;7.40;5.85;;;;;;;;;;5098905;28;20044;-83
2021/09/08 13:39:53;;;;;;;8.60;5.90;;;;;;;;;;5099553;28;20043;-83
2021/09/08 13:42:20;;;;;;;8.65;6.15;;;;;;;;;;5098356;28;20071;-82
2021/09/08 13:44:47;;;;;;;6.85;6.15;;;;;;;;;;5081266;28;20043;-81
2021/09/08 13:47:13;;;;;;;7.35;5.20;;;;;;;;;;5080196;28;20119;-81
2021/09/08 13:49:40;;;;;;;7.30;5.15;;;;;;;;;;5081026;28;20040;-83
2021/09/08 13:52:08;;;;;;;6.93;5.18;;;;;;;;;;5098752;28;20051;-82
2021/09/08 13:54:37;;;;;;;13.98;6.53;;;;;;;;;;5098287;28;20044;-81
2021/09/08 13:57:04;;;;;;;7.80;5.63;;;;;;;;;;5080883;28;20558;-81
2021/09/08 13:59:30;;;;;;;8.85;5.85;;;;;;;;;;5098679;28;20472;-81
2021/09/08 14:01:57;;;;;;;8.52;5.68;;;;;;;;;;5099015;28;20037;-83
2021/09/08 14:04:24;;;;;;;6.82;4.95;;;;;;;;;;5064116;28;20080;-81
2021/09/08 14:06:50;;;;;;;7.85;5.80;;;;;;;;;;5080029;28;20472;-81
2021/09/08 14:09:18;;;;;;;7.32;6.07;;;;;;;;;;5098238;28;20047;-82
2021/09/08 14:11:44;;;;;;;7.38;5.95;;;;;;;;;;5097936;28;20044;-81
2021/09/08 14:14:11;;;;;;;7.10;5.95;;;;;;;;;;5098130;28;20075;-82
2021/09/08 14:16:37;;;;;;;7.10;4.78;;;;;;;;;;5098650;28;20040;-82
2021/09/08 14:19:04;;;;;;;8.02;6.13;;;;;;;;;;5097798;28;20074;-81
2021/09/08 14:21:30;;;;;;;6.57;5.80;;;;;;;;;;5098619;28;20036;-82
2021/09/08 14:23:57;;;;;;;9.80;5.55;;;;;;;;;;5098110;28;20036;-82
2021/09/08 14:26:25;;;;;;;9.60;5.93;;;;;;;;;;5098234;28;20464;-82
2021/09/08 14:28:51;;;;;;;6.40;5.10;;;;;;;;;;5080576;28;20368;-83
2021/09/08 14:31:17;;;;;;;8.25;6.00;;;;;;;;;;5099646;28;20036;-82